Latest Weather Observations for Yanakie

IDV60801

Issued at 6:05 pm EST Thursday 21 August 2014 (issued every 30 minutes, with the page automatically refreshed every 10 minutes)

About weather observations | Map of weather stations | Latest weather observations for VIC | Other Formats
Station Details ID: 085301 Name: YANAKIE Lat: -38.81 Lon: 146.19 Height: 13.3 m
Data from the previous 72 hours. | See also: Recent months at Yanakie
Date/Time
EST
Temp
°C
App
Temp
°C
Dew
Point
Rel
Hum
%
Delta-T
°C
Wind Press
QNH
hPa
Press
MSL
hPa
Rain
since 9 am
mm
Dir
 
Spd
km/h
Gust
km/h
Spd
kts
Gust
kts
21/06:00pm 11.5 8.2 9.6 88 1.0 E 17 26 9 14 1029.6 1029.6 0.0
21/05:30pm 11.8 8.8 9.2 84 1.3 E 15 22 8 12 1029.4 1029.4 0.0
21/05:00pm 12.7 9.3 9.2 79 1.8 E 17 26 9 14 1029.0 1029.0 0.0
21/04:30pm 13.4 10.0 9.1 75 2.2 E 17 26 9 14 1028.9 1028.9 0.0
21/04:00pm 13.9 9.9 9.1 73 2.4 E 20 32 11 17 1028.7 1028.7 0.0
21/03:30pm 14.2 10.2 9.2 72 2.5 E 20 32 11 17 1028.5 1028.5 0.0
21/03:00pm 14.8 11.5 9.4 70 2.8 E 17 30 9 16 1028.5 1028.5 0.0
21/02:30pm 14.9 11.1 9.1 68 3.0 E 19 32 10 17 1028.4 1028.4 0.0
21/02:00pm 15.2 11.6 9.8 70 2.8 E 19 32 10 17 1028.6 1028.6 0.0
21/01:30pm 14.8 10.9 9.6 71 2.7 E 20 33 11 18 1028.8 1028.8 0.0
21/01:00pm 14.6 10.6 9.0 69 2.8 E 20 33 11 18 1029.1 1029.1 0.0
21/12:30pm 14.2 9.7 8.6 69 2.8 E 22 32 12 17 1029.3 1029.3 0.0
21/12:00pm 14.2 10.3 9.4 73 2.4 ENE 20 30 11 16 1029.7 1029.7 0.0
21/11:30am 12.9 9.0 8.8 76 2.1 ENE 19 28 10 15 1030.1 1030.1 0.0
21/11:00am 13.4 9.4 8.9 74 2.2 ENE 20 28 11 15 1030.4 1030.4 0.0
21/10:30am 12.8 8.6 8.1 73 2.3 ENE 20 26 11 14 1030.4 1030.4 0.0
21/10:00am 11.4 7.9 7.1 75 2.0 ENE 15 20 8 11 1030.6 1030.6 0.0
21/09:30am 11.9 8.4 7.2 73 2.3 ENE 15 24 8 13 1030.5 1030.5 0.0
21/09:00am 11.0 7.1 6.9 76 1.9 ENE 17 28 9 15 1030.4 1030.4 0.2
21/08:30am 10.4 6.9 7.3 81 1.5 ENE 15 20 8 11 1030.3 1030.3 0.2
21/08:00am 9.6 6.6 7.5 87 1.0 ENE 13 19 7 10 1030.1 1030.1 0.2
21/07:30am 8.7 6.7 7.2 90 0.7 NE 7 13 4 7 1029.9 1029.9 0.2
21/07:00am 7.2 5.1 5.8 91 0.6 ENE 6 7 3 4 1029.6 1029.6 0.2
21/06:30am 7.6 5.6 6.2 91 0.6 ENE 6 9 3 5 1029.5 1029.5 0.2
21/06:00am 8.4 6.6 7.2 92 0.6 ENE 6 9 3 5 1029.3 1029.3 0.2
21/05:30am 7.8 6.3 6.7 93 0.5 NE 4 7 2 4 1029.2 1029.2 0.2
21/05:00am 6.4 4.6 5.2 92 0.5 E 4 7 2 4 1029.0 1029.0 0.2
21/04:30am 7.2 5.1 6.0 92 0.5 E 6 7 3 4 1028.8 1028.8 0.2
21/04:00am 8.5 6.7 7.3 92 0.6 E 6 7 3 4 1028.7 1028.7 0.2
21/03:30am 9.3 7.7 8.2 93 0.5 ESE 6 7 3 4 1028.5 1028.5 0.2
21/03:00am 8.8 7.6 7.9 94 0.4 ESE 4 9 2 5 1028.4 1028.4 0.2
21/02:30am 8.9 7.7 8.1 95 0.4 E 4 7 2 4 1028.6 1028.6 0.2
21/02:00am 8.3 7.0 7.5 95 0.4 ESE 4 7 2 4 1028.7 1028.7 0.2
21/01:30am 7.8 6.4 7.1 95 0.3 ESE 4 6 2 3 1028.7 1028.7 0.2
21/01:00am 8.0 6.6 7.2 95 0.4 NE 4 4 2 2 1028.8 1028.8 0.2
21/12:30am 7.3 6.1 6.6 95 0.3 E 2 6 1 3 1028.9 1028.9 0.2
21/12:00am 6.8 5.5 5.9 94 0.4 ENE 2 4 1 2 1028.7 1028.7 0.2
 
Date/Time
EST
Temp
°C
App
Temp
°C
Dew
Point
Rel
Hum
%
Delta-T
°C
Wind Press
QNH
hPa
Press
MSL
hPa
Rain
since 9 am
mm
Dir
 
Spd
km/h
Gust
km/h
Spd
kts
Gust
kts
20/11:30pm 6.9 5.2 5.8 93 0.5 NE 4 6 2 3 1028.8 1028.8 0.2
20/11:00pm 6.8 4.5 5.7 93 0.5 E 7 11 4 6 1028.8 1028.8 0.2
20/10:30pm 5.7 4.1 4.3 91 0.6 SSE 2 6 1 3 1028.7 1028.7 0.2
20/10:00pm 7.4 5.7 6.0 91 0.6 NE 4 6 2 3 1028.9 1028.9 0.2
20/09:30pm 8.3 6.3 6.9 91 0.7 N 7 9 4 5 1029.0 1029.0 0.2
20/09:00pm 8.5 6.7 7.1 91 0.6 N 6 7 3 4 1028.9 1028.9 0.2
20/08:30pm 8.1 6.2 6.9 92 0.6 N 6 7 3 4 1028.7 1028.7 0.2
20/08:00pm 7.8 5.8 6.4 91 0.6 N 6 7 3 4 1028.6 1028.6 0.2
20/07:30pm 7.2 5.8 5.7 90 0.7 N 2 4 1 2 1028.5 1028.5 0.2
20/07:00pm 7.4 6.4 5.7 89 0.8 CALM 0 4 0 2 1028.3 1028.3 0.2
20/06:30pm 7.3 5.5 5.3 87 0.9 SSW 4 4 2 2 1028.0 1028.0 0.2
20/06:00pm 8.0 5.9 5.6 85 1.1 SSW 6 9 3 5 1027.6 1027.6 0.2
20/05:30pm 9.7 7.7 6.2 79 1.6 SSW 6 7 3 4 1027.3 1027.3 0.2
20/05:00pm 11.2 8.9 7.3 77 1.9 SSW 9 13 5 7 1027.1 1027.1 0.2
20/04:30pm 12.1 9.5 7.8 75 2.1 SSW 11 17 6 9 1026.8 1026.8 0.2
20/04:00pm 12.3 9.1 6.8 69 2.6 SW 13 17 7 9 1026.6 1026.6 0.2
20/03:30pm 12.8 9.6 6.8 67 2.9 SSW 13 19 7 10 1026.4 1026.4 0.2
20/03:00pm 13.1 9.7 7.5 69 2.7 SW 15 20 8 11 1026.2 1026.2 0.2
20/02:30pm 13.0 9.9 7.2 68 2.8 SSW 13 19 7 10 1026.2 1026.2 0.2
20/02:00pm 12.4 9.3 7.3 71 2.5 SSW 13 19 7 10 1026.2 1026.2 0.2
20/01:30pm 12.4 9.8 7.7 73 2.3 SW 11 17 6 9 1026.2 1026.2 0.2
20/01:00pm 12.1 9.2 8.0 76 2.0 SW 13 15 7 8 1026.4 1026.4 0.2
20/12:30pm 11.2 9.6 8.6 84 1.3 W 7 13 4 7 1026.6 1026.6 0.2
20/12:00pm 10.8 8.0 8.4 85 1.2 WSW 13 24 7 13 1026.9 1026.9 0.2
20/11:30am 11.6 9.9 9.7 88 1.0 WSW 9 19 5 10 1027.0 1027.0 0.2
20/11:00am 11.2 9.9 10.1 93 0.6 WNW 7 9 4 5 1027.1 1027.1 0.2
20/10:30am 10.0 8.7 9.2 95 0.4 WNW 6 9 3 5 1027.2 1027.2 0.2
20/10:00am 9.5 7.2 8.9 96 0.3 W 11 15 6 8 1027.2 1027.2 0.2
20/09:30am 10.0 8.6 9.4 96 0.3 WNW 7 9 4 5 1027.1 1027.1 0.0
20/09:00am 9.2 7.6 8.7 97 0.2 NW 7 9 4 5 1026.7 1026.7 0.8
20/08:30am 8.5 6.9 7.9 96 0.3 WNW 6 9 3 5 1026.6 1026.6 0.8
20/08:00am 8.4 6.6 7.8 96 0.3 N 7 11 4 6 1026.2 1026.2 0.6
20/07:30am 8.1 6.2 7.5 96 0.3 N 7 11 4 6 1026.0 1026.0 0.6
20/07:00am 8.0 5.7 7.4 96 0.3 N 9 11 5 6 1025.7 1025.7 0.6
20/06:30am 8.3 7.7 7.5 95 0.4 CALM 0 4 0 2 1025.4 1025.4 0.6
20/06:00am 8.4 7.1 7.5 94 0.4 SW 4 7 2 4 1025.4 1025.4 0.6
20/05:30am 8.0 6.2 7.1 94 0.4 W 6 7 3 4 1025.2 1025.2 0.2
20/05:00am 8.3 6.3 7.2 93 0.5 WNW 7 11 4 6 1025.1 1025.1 0.2
20/04:30am 9.1 5.7 7.7 91 0.7 W 15 20 8 11 1025.1 1025.1 0.2
20/04:00am 9.0 7.5 6.6 85 1.1 WSW 4 9 2 5 1025.1 1025.1 0.0
20/03:30am 9.3 7.2 6.7 84 1.2 WNW 7 11 4 6 1024.9 1024.9 0.0
20/03:00am 8.9 7.3 6.2 83 1.2 WNW 4 6 2 3 1024.9 1024.9 0.0
20/02:30am 10.0 7.1 6.5 79 1.6 SW 11 15 6 8 1025.1 1025.1 0.0
20/02:00am 9.2 7.5 5.8 79 1.5 WNW 4 6 2 3 1025.2 1025.2 0.0
20/01:30am 9.1 7.4 5.8 80 1.5 WNW 4 7 2 4 1025.3 1025.3 0.0
20/01:00am 8.2 6.8 5.5 83 1.2 W 2 6 1 3 1025.4 1025.4 0.0
20/12:30am 8.6 7.2 5.5 81 1.4 WSW 2 6 1 3 1025.5 1025.5 0.0
20/12:00am 8.4 6.3 5.7 83 1.2 NW 6 9 3 5 1025.5 1025.5 0.0
 
Date/Time
EST
Temp
°C
App
Temp
°C
Dew
Point
Rel
Hum
%
Delta-T
°C
Wind Press
QNH
hPa
Press
MSL
hPa
Rain
since 9 am
mm
Dir
 
Spd
km/h
Gust
km/h
Spd
kts
Gust
kts
19/11:30pm 8.7 6.5 5.3 79 1.5 N 6 7 3 4 1025.5 1025.5 0.0
19/11:00pm 8.6 6.2 5.4 80 1.4 NNW 7 9 4 5 1025.5 1025.5 0.0
19/10:30pm 7.9 5.6 4.7 80 1.4 NW 6 7 3 4 1025.6 1025.6 0.0
19/10:00pm 8.5 6.1 4.3 75 1.8 SW 6 6 3 3 1025.8 1025.8 0.0
19/09:30pm 9.6 7.5 5.6 76 1.8 SW 6 9 3 5 1025.7 1025.7 0.0
19/09:00pm 9.1 6.4 5.5 78 1.6 WSW 9 11 5 6 1025.7 1025.7 0.0
19/08:30pm 9.3 5.7 5.1 75 1.9 WSW 13 19 7 10 1025.6 1025.6 0.0
19/08:00pm 10.1 7.1 6.1 76 1.8 SW 11 17 6 9 1025.4 1025.4 0.0
19/07:30pm 10.1 7.7 6.8 80 1.6 SSW 9 13 5 7 1025.2 1025.2 0.0
19/07:00pm 10.2 7.5 7.3 82 1.4 SSW 11 15 6 8 1025.0 1025.0 0.0
19/06:30pm 10.3 7.7 7.9 85 1.2 SSW 11 15 6 8 1024.8 1024.8 0.0
19/06:00pm 8.8 7.1 6.1 83 1.2 WSW 4 4 2 2 1024.4 1024.4 0.0
19/05:30pm 8.8 6.6 5.4 79 1.5 SW 6 6 3 3 1024.2 1024.2 0.0
19/05:00pm 11.5 9.1 6.8 73 2.2 SW 9 13 5 7 1023.9 1023.9 0.0
19/04:30pm 11.8 9.4 7.1 73 2.3 SSW 9 13 5 7 1024.0 1024.0 0.0
19/04:00pm 12.0 8.8 6.9 71 2.4 SW 13 17 7 9 1023.9 1023.9 0.0
19/03:30pm 12.7 9.4 8.0 73 2.3 SSW 15 19 8 10 1023.8 1023.8 0.0
19/03:00pm 12.6 9.2 7.5 71 2.5 SSW 15 20 8 11 1023.8 1023.8 0.0
19/02:30pm 12.7 9.7 7.6 71 2.5 WSW 13 22 7 12 1023.8 1023.8 0.0
19/02:00pm 12.9 9.5 7.6 70 2.6 SW 15 19 8 10 1023.7 1023.7 0.0
19/01:30pm 13.0 10.2 8.5 74 2.2 SW 13 19 7 10 1023.8 1023.8 0.0
19/01:00pm 12.4 9.4 7.7 73 2.3 SW 13 19 7 10 1024.0 1024.0 0.0
19/12:30pm 12.1 10.0 8.2 77 1.9 SW 9 13 5 7 1024.3 1024.3 0.0
19/12:00pm 11.8 10.2 8.6 81 1.6 W 7 9 4 5 1024.5 1024.5 0.0
19/11:30am 11.6 9.6 8.5 81 1.5 W 9 9 5 5 1024.7 1024.7 0.0
19/11:00am 11.8 10.4 8.8 82 1.5 W 6 7 3 4 1025.0 1025.0 0.0
19/10:30am 11.6 10.2 8.8 83 1.4 W 6 6 3 3 1024.8 1024.8 0.0
19/10:00am 11.7 11.0 8.7 82 1.5 W 2 6 1 3 1024.8 1024.8 0.0
19/09:30am 11.6 11.4 9.0 84 1.3 CALM 0 0 0 0 1024.7 1024.7 0.0
19/09:00am 11.3 11.2 9.6 89 0.9 CALM 0 0 0 0 1024.7 1024.7 0.4
19/08:30am 10.3 10.1 8.9 91 0.7 CALM 0 0 0 0 1024.6 1024.6 0.4
19/08:00am 9.3 8.8 7.9 91 0.7 CALM 0 0 0 0 1024.5 1024.5 0.4
19/07:30am 8.6 7.9 7.1 90 0.7 CALM 0 2 0 1 1024.3 1024.3 0.4
19/07:00am 8.5 7.7 6.6 88 0.9 CALM 0 0 0 0 1024.0 1024.0 0.4
19/06:30am 9.2 7.7 7.0 86 1.0 SSE 4 4 2 2 1023.7 1023.7 0.4
19/06:00am 9.6 7.7 7.5 87 1.0 S 7 9 4 5 1023.5 1023.5 0.4
19/05:30am 9.7 8.1 7.8 88 0.9 S 6 9 3 5 1023.3 1023.3 0.4
19/05:00am 9.5 7.8 7.6 88 0.9 SSE 6 7 3 4 1023.2 1023.2 0.4
19/04:30am 9.7 8.1 8.0 89 0.8 SSE 6 7 3 4 1023.1 1023.1 0.4
19/04:00am 10.1 8.0 8.2 88 0.9 S 9 17 5 9 1023.1 1023.1 0.4
19/03:30am 9.9 8.2 7.5 85 1.1 S 6 11 3 6 1023.0 1023.0 0.4
19/03:00am 9.9 8.2 7.7 86 1.0 SSE 6 7 3 4 1023.0 1023.0 0.4
19/02:30am 9.7 8.0 7.5 86 1.0 SSE 6 7 3 4 1023.1 1023.1 0.4
19/02:00am 10.0 8.7 7.6 85 1.1 SSE 4 6 2 3 1023.2 1023.2 0.4
19/01:30am 10.2 8.5 7.6 84 1.2 S 6 7 3 4 1023.2 1023.2 0.4
19/01:00am 10.3 8.4 7.5 83 1.3 S 7 13 4 7 1023.2 1023.2 0.4
19/12:30am 10.5 8.0 8.3 86 1.1 S 11 15 6 8 1023.2 1023.2 0.4
19/12:00am 9.4 7.6 7.8 90 0.8 SSE 7 9 4 5 1023.1 1023.1 0.4
 
Date/Time
EST
Temp
°C
App
Temp
°C
Dew
Point
Rel
Hum
%
Delta-T
°C
Wind Press
QNH
hPa
Press
MSL
hPa
Rain
since 9 am
mm
Dir
 
Spd
km/h
Gust
km/h
Spd
kts
Gust
kts
18/11:30pm 8.8 7.0 7.3 90 0.7 SSE 6 7 3 4 1023.2 1023.2 0.4
18/11:00pm 9.7 7.9 8.0 89 0.8 S 7 9 4 5 1023.1 1023.1 0.4
18/10:30pm 10.1 8.4 8.5 90 0.8 S 7 13 4 7 1023.0 1023.0 0.4
18/10:00pm 10.4 8.4 8.7 89 0.8 S 9 13 5 7 1023.0 1023.0 0.4
18/09:30pm 10.5 8.5 8.8 89 0.8 SSE 9 15 5 8 1022.9 1022.9 0.4
18/09:00pm 10.3 9.3 8.7 90 0.8 S 4 7 2 4 1022.6 1022.6 0.4
18/08:30pm 10.2 8.7 8.6 90 0.8 S 6 7 3 4 1022.6 1022.6 0.4
18/08:00pm 10.2 8.7 8.6 90 0.8 SSE 6 9 3 5 1022.4 1022.4 0.4
18/07:30pm 10.1 8.5 8.7 91 0.7 S 7 9 4 5 1022.2 1022.2 0.4
18/07:00pm 10.2 8.8 8.8 91 0.7 SSE 6 7 3 4 1022.0 1022.0 0.4
18/06:30pm 10.2 8.8 9.0 92 0.6 S 6 7 3 4 1021.8 1021.8 0.4

Other Formats:

Comma delimited format used in spreadsheet applications
http://www.bom.gov.au/fwo/IDV60801/IDV60801.94911.axf

JavaScript Object Notation format (JSON) in row-major order
http://www.bom.gov.au/fwo/IDV60801/IDV60801.94911.json